sensor_id;sensor_type;location;lat;lon;timestamp;pressure;altitude;pressure_sealevel;temperature;humidity
34237;BME280;20501;45.956;13.632;2024-02-26T00:00:27;99839.53;;;7.56;88.87
34237;BME280;20501;45.956;13.632;2024-02-26T00:02:54;99831.75;;;7.53;88.63
34237;BME280;20501;45.956;13.632;2024-02-26T00:05:19;99828.25;;;7.63;87.48
34237;BME280;20501;45.956;13.632;2024-02-26T00:07:45;99833.75;;;7.51;87.48
34237;BME280;20501;45.956;13.632;2024-02-26T00:10:10;99826.22;;;7.45;87.58
34237;BME280;20501;45.956;13.632;2024-02-26T00:12:36;99817.72;;;7.40;87.54
34237;BME280;20501;45.956;13.632;2024-02-26T00:15:01;99820.16;;;7.53;87.47
34237;BME280;20501;45.956;13.632;2024-02-26T00:17:27;99821.72;;;7.65;86.99
34237;BME280;20501;45.956;13.632;2024-02-26T00:19:52;99816.94;;;7.79;86.39
34237;BME280;20501;45.956;13.632;2024-02-26T00:22:18;99818.06;;;7.76;86.17
34237;BME280;20501;45.956;13.632;2024-02-26T00:24:43;99819.19;;;7.64;86.67
34237;BME280;20501;45.956;13.632;2024-02-26T00:27:09;99817.91;;;7.58;86.37
34237;BME280;20501;45.956;13.632;2024-02-26T00:29:34;99819.47;;;7.80;86.97
34237;BME280;20501;45.956;13.632;2024-02-26T00:32:00;99815.38;;;7.66;85.85
34237;BME280;20501;45.956;13.632;2024-02-26T00:34:25;99811.53;;;7.59;85.84
34237;BME280;20501;45.956;13.632;2024-02-26T00:36:51;99814.91;;;7.51;86.37
34237;BME280;20501;45.956;13.632;2024-02-26T00:39:16;99810.94;;;7.46;86.47
34237;BME280;20501;45.956;13.632;2024-02-26T00:41:42;99802.28;;;7.22;87.46
34237;BME280;20501;45.956;13.632;2024-02-26T00:44:07;99803.19;;;7.72;85.45
34237;BME280;20501;45.956;13.632;2024-02-26T00:46:33;99798.78;;;7.32;86.74
34237;BME280;20501;45.956;13.632;2024-02-26T00:48:58;99792.75;;;7.08;88.14
34237;BME280;20501;45.956;13.632;2024-02-26T00:51:23;99792.66;;;7.20;86.57
34237;BME280;20501;45.956;13.632;2024-02-26T00:53:49;99789.16;;;7.39;86.73
34237;BME280;20501;45.956;13.632;2024-02-26T00:56:14;99780.09;;;7.30;86.45
34237;BME280;20501;45.956;13.632;2024-02-26T00:58:40;99789.28;;;6.87;88.88
34237;BME280;20501;45.956;13.632;2024-02-26T01:01:05;99780.28;;;6.57;90.39
34237;BME280;20501;45.956;13.632;2024-02-26T01:03:31;99777.81;;;6.44;90.91
34237;BME280;20501;45.956;13.632;2024-02-26T01:05:56;99771.38;;;6.56;91.40
34237;BME280;20501;45.956;13.632;2024-02-26T01:08:21;99767.53;;;6.90;88.76
34237;BME280;20501;45.956;13.632;2024-02-26T01:10:47;99770.81;;;6.93;88.57
34237;BME280;20501;45.956;13.632;2024-02-26T01:13:12;99772.81;;;7.01;88.09
34237;BME280;20501;45.956;13.632;2024-02-26T01:15:38;99764.91;;;7.00;88.08
34237;BME280;20501;45.956;13.632;2024-02-26T01:18:03;99760.94;;;6.94;88.13
34237;BME280;20501;45.956;13.632;2024-02-26T01:20:29;99771.88;;;6.81;88.00
34237;BME280;20501;45.956;13.632;2024-02-26T01:22:54;99760.00;;;6.74;89.34
34237;BME280;20501;45.956;13.632;2024-02-26T01:25:20;99753.97;;;6.91;88.59
34237;BME280;20501;45.956;13.632;2024-02-26T01:27:45;99755.25;;;6.87;88.71
34237;BME280;20501;45.956;13.632;2024-02-26T01:30:11;99749.72;;;6.79;89.13
34237;BME280;20501;45.956;13.632;2024-02-26T01:32:36;99753.97;;;6.81;89.05
34237;BME280;20501;45.956;13.632;2024-02-26T01:35:02;99751.13;;;6.83;88.75
34237;BME280;20501;45.956;13.632;2024-02-26T01:37:35;99748.94;;;6.57;90.03
34237;BME280;20501;45.956;13.632;2024-02-26T01:40:01;99743.97;;;6.53;90.81
34237;BME280;20501;45.956;13.632;2024-02-26T01:42:29;99746.41;;;6.65;88.86
34237;BME280;20501;45.956;13.632;2024-02-26T01:44:56;99735.56;;;6.77;88.53
34237;BME280;20501;45.956;13.632;2024-02-26T01:47:22;99745.34;;;6.78;89.26
34237;BME280;20501;45.956;13.632;2024-02-26T01:49:48;99744.16;;;6.40;90.48
34237;BME280;20501;45.956;13.632;2024-02-26T01:52:13;99740.09;;;6.14;91.53
34237;BME280;20501;45.956;13.632;2024-02-26T01:54:40;99743.31;;;6.08;92.24
34237;BME280;20501;45.956;13.632;2024-02-26T01:57:07;99734.59;;;6.16;91.80
34237;BME280;20501;45.956;13.632;2024-02-26T01:59:34;99730.31;;;6.34;89.37
34237;BME280;20501;45.956;13.632;2024-02-26T02:02:01;99733.66;;;6.58;89.13
34237;BME280;20501;45.956;13.632;2024-02-26T02:04:27;99730.09;;;6.16;90.42
34237;BME280;20501;45.956;13.632;2024-02-26T02:06:53;99725.03;;;6.23;90.73
34237;BME280;20501;45.956;13.632;2024-02-26T02:09:19;99727.88;;;6.00;91.81
34237;BME280;20501;45.956;13.632;2024-02-26T02:11:45;99726.69;;;5.93;93.04
34237;BME280;20501;45.956;13.632;2024-02-26T02:14:12;99732.88;;;6.36;91.79
34237;BME280;20501;45.956;13.632;2024-02-26T02:16:37;99722.78;;;6.28;89.81
34237;BME280;20501;45.956;13.632;2024-02-26T02:19:02;99723.13;;;6.35;90.09
34237;BME280;20501;45.956;13.632;2024-02-26T02:21:28;99722.28;;;6.34;89.11
34237;BME280;20501;45.956;13.632;2024-02-26T02:23:53;99720.88;;;6.40;89.03
34237;BME280;20501;45.956;13.632;2024-02-26T02:26:19;99721.69;;;6.31;89.46
34237;BME280;20501;45.956;13.632;2024-02-26T02:28:46;99712.34;;;6.56;89.53
34237;BME280;20501;45.956;13.632;2024-02-26T02:31:12;99718.38;;;6.17;89.46
34237;BME280;20501;45.956;13.632;2024-02-26T02:33:38;99718.38;;;6.48;90.09
34237;BME280;20501;45.956;13.632;2024-02-26T02:36:04;99717.16;;;6.62;89.04
34237;BME280;20501;45.956;13.632;2024-02-26T02:38:29;99720.81;;;6.52;90.08
34237;BME280;20501;45.956;13.632;2024-02-26T02:40:55;99715.44;;;6.61;89.58
34237;BME280;20501;45.956;13.632;2024-02-26T02:43:21;99709.25;;;6.61;89.73
34237;BME280;20501;45.956;13.632;2024-02-26T02:45:47;99713.75;;;6.60;90.59
34237;BME280;20501;45.956;13.632;2024-02-26T02:48:12;99719.78;;;6.22;90.49
34237;BME280;20501;45.956;13.632;2024-02-26T02:50:38;99716.50;;;6.08;91.44
34237;BME280;20501;45.956;13.632;2024-02-26T02:53:03;99724.44;;;5.98;92.14
34237;BME280;20501;45.956;13.632;2024-02-26T02:55:29;99716.38;;;5.98;92.11
34237;BME280;20501;45.956;13.632;2024-02-26T02:57:54;99712.59;;;6.22;89.77
34237;BME280;20501;45.956;13.632;2024-02-26T03:00:20;99700.31;;;6.19;89.17
34237;BME280;20501;45.956;13.632;2024-02-26T03:02:48;99702.41;;;6.16;88.90
34237;BME280;20501;45.956;13.632;2024-02-26T03:05:14;99700.25;;;6.10;89.63
34237;BME280;20501;45.956;13.632;2024-02-26T03:07:39;99699.72;;;5.95;90.03
34237;BME280;20501;45.956;13.632;2024-02-26T03:10:05;99693.91;;;6.11;88.59
34237;BME280;20501;45.956;13.632;2024-02-26T03:12:30;99690.50;;;6.09;89.52
34237;BME280;20501;45.956;13.632;2024-02-26T03:14:56;99696.84;;;6.39;88.92
34237;BME280;20501;45.956;13.632;2024-02-26T03:17:21;99692.69;;;6.15;88.28
34237;BME280;20501;45.956;13.632;2024-02-26T03:19:49;99690.81;;;5.94;88.22
34237;BME280;20501;45.956;13.632;2024-02-26T03:22:18;99687.03;;;5.97;89.54
34237;BME280;20501;45.956;13.632;2024-02-26T03:24:44;99687.75;;;5.99;88.50
34237;BME280;20501;45.956;13.632;2024-02-26T03:27:09;99692.03;;;6.01;88.74
34237;BME280;20501;45.956;13.632;2024-02-26T03:29:37;99690.22;;;5.91;88.89
34237;BME280;20501;45.956;13.632;2024-02-26T03:32:02;99694.94;;;5.98;89.75
34237;BME280;20501;45.956;13.632;2024-02-26T03:34:28;99686.28;;;6.06;89.67
34237;BME280;20501;45.956;13.632;2024-02-26T03:36:53;99683.28;;;5.99;89.88
34237;BME280;20501;45.956;13.632;2024-02-26T03:39:19;99691.16;;;6.22;90.57
34237;BME280;20501;45.956;13.632;2024-02-26T03:41:44;99676.28;;;6.49;89.03
34237;BME280;20501;45.956;13.632;2024-02-26T03:44:10;99679.03;;;6.28;90.48
34237;BME280;20501;45.956;13.632;2024-02-26T03:46:35;99676.13;;;6.41;91.11
34237;BME280;20501;45.956;13.632;2024-02-26T03:49:00;99672.81;;;6.68;89.63
34237;BME280;20501;45.956;13.632;2024-02-26T03:51:26;99667.22;;;6.40;90.03
34237;BME280;20501;45.956;13.632;2024-02-26T03:53:59;99667.13;;;6.52;90.14
34237;BME280;20501;45.956;13.632;2024-02-26T03:56:25;99666.09;;;6.43;89.20
34237;BME280;20501;45.956;13.632;2024-02-26T03:58:51;99670.13;;;6.27;90.66
34237;BME280;20501;45.956;13.632;2024-02-26T04:01:16;99673.19;;;6.13;91.41
34237;BME280;20501;45.956;13.632;2024-02-26T04:03:42;99672.28;;;6.33;90.96
34237;BME280;20501;45.956;13.632;2024-02-26T04:06:11;99667.91;;;6.32;90.75
34237;BME280;20501;45.956;13.632;2024-02-26T04:08:40;99666.53;;;6.48;90.06
34237;BME280;20501;45.956;13.632;2024-02-26T04:11:06;99675.81;;;6.34;90.52
34237;BME280;20501;45.956;13.632;2024-02-26T04:13:35;99674.50;;;6.28;90.88
34237;BME280;20501;45.956;13.632;2024-02-26T04:16:00;99669.53;;;6.14;91.04
34237;BME280;20501;45.956;13.632;2024-02-26T04:18:29;99679.56;;;6.22;91.60
34237;BME280;20501;45.956;13.632;2024-02-26T04:20:54;99671.91;;;6.17;91.94
34237;BME280;20501;45.956;13.632;2024-02-26T04:23:20;99681.81;;;6.16;91.45
34237;BME280;20501;45.956;13.632;2024-02-26T04:25:45;99673.44;;;6.10;91.30
34237;BME280;20501;45.956;13.632;2024-02-26T04:28:11;99671.22;;;6.15;92.19
34237;BME280;20501;45.956;13.632;2024-02-26T04:30:37;99670.34;;;6.14;92.23
34237;BME280;20501;45.956;13.632;2024-02-26T04:33:03;99676.28;;;6.08;92.65
34237;BME280;20501;45.956;13.632;2024-02-26T04:35:29;99682.66;;;6.17;92.00
34237;BME280;20501;45.956;13.632;2024-02-26T04:37:54;99679.38;;;6.13;91.45
34237;BME280;20501;45.956;13.632;2024-02-26T04:40:20;99675.00;;;6.12;92.10
34237;BME280;20501;45.956;13.632;2024-02-26T04:42:45;99675.22;;;6.21;92.15
34237;BME280;20501;45.956;13.632;2024-02-26T04:45:10;99673.84;;;6.36;91.18
34237;BME280;20501;45.956;13.632;2024-02-26T04:47:36;99673.75;;;6.47;90.52
34237;BME280;20501;45.956;13.632;2024-02-26T04:50:01;99676.75;;;6.23;91.52
34237;BME280;20501;45.956;13.632;2024-02-26T04:52:27;99670.72;;;6.31;91.67
34237;BME280;20501;45.956;13.632;2024-02-26T04:54:53;99674.59;;;6.17;91.95
34237;BME280;20501;45.956;13.632;2024-02-26T04:57:18;99667.94;;;6.11;92.86
34237;BME280;20501;45.956;13.632;2024-02-26T04:59:44;99669.28;;;6.27;92.30
34237;BME280;20501;45.956;13.632;2024-02-26T05:02:11;99673.22;;;6.23;91.61
34237;BME280;20501;45.956;13.632;2024-02-26T05:04:36;99673.00;;;6.04;93.16
34237;BME280;20501;45.956;13.632;2024-02-26T05:07:02;99679.13;;;6.16;92.92
34237;BME280;20501;45.956;13.632;2024-02-26T05:09:27;99671.25;;;6.25;92.11
34237;BME280;20501;45.956;13.632;2024-02-26T05:11:52;99674.19;;;6.22;92.43
34237;BME280;20501;45.956;13.632;2024-02-26T05:14:18;99669.06;;;6.09;92.25
34237;BME280;20501;45.956;13.632;2024-02-26T05:16:44;99676.63;;;6.25;92.17
34237;BME280;20501;45.956;13.632;2024-02-26T05:19:09;99675.41;;;6.08;91.71
34237;BME280;20501;45.956;13.632;2024-02-26T05:21:34;99676.28;;;6.08;92.54
34237;BME280;20501;45.956;13.632;2024-02-26T05:24:00;99677.75;;;6.22;92.03
34237;BME280;20501;45.956;13.632;2024-02-26T05:26:25;99675.81;;;6.03;91.91
34237;BME280;20501;45.956;13.632;2024-02-26T05:28:52;99677.91;;;5.99;93.08
34237;BME280;20501;45.956;13.632;2024-02-26T05:31:17;99683.13;;;6.01;93.19
34237;BME280;20501;45.956;13.632;2024-02-26T05:33:44;99679.66;;;5.89;93.64
34237;BME280;20501;45.956;13.632;2024-02-26T05:36:09;99684.97;;;6.00;93.00
34237;BME280;20501;45.956;13.632;2024-02-26T05:38:35;99684.63;;;5.94;93.27
34237;BME280;20501;45.956;13.632;2024-02-26T05:41:01;99690.06;;;5.82;94.08
34237;BME280;20501;45.956;13.632;2024-02-26T05:43:26;99697.44;;;5.90;93.95
34237;BME280;20501;45.956;13.632;2024-02-26T05:45:52;99701.81;;;5.91;93.60
34237;BME280;20501;45.956;13.632;2024-02-26T05:48:19;99703.59;;;5.81;93.78
34237;BME280;20501;45.956;13.632;2024-02-26T05:50:47;99707.03;;;5.93;93.47
34237;BME280;20501;45.956;13.632;2024-02-26T05:53:13;99706.91;;;5.94;93.64
34237;BME280;20501;45.956;13.632;2024-02-26T05:55:38;99704.63;;;5.89;94.66
34237;BME280;20501;45.956;13.632;2024-02-26T05:58:04;99704.91;;;5.86;94.21
34237;BME280;20501;45.956;13.632;2024-02-26T06:00:30;99713.66;;;6.10;93.81
34237;BME280;20501;45.956;13.632;2024-02-26T06:02:55;99712.16;;;6.17;92.94
34237;BME280;20501;45.956;13.632;2024-02-26T06:05:21;99718.06;;;6.11;93.19
34237;BME280;20501;45.956;13.632;2024-02-26T06:07:46;99718.78;;;6.13;93.57
34237;BME280;20501;45.956;13.632;2024-02-26T06:10:12;99724.38;;;6.31;92.53
34237;BME280;20501;45.956;13.632;2024-02-26T06:12:39;99735.41;;;6.38;92.53
34237;BME280;20501;45.956;13.632;2024-02-26T06:15:05;99728.94;;;6.40;92.43
34237;BME280;20501;45.956;13.632;2024-02-26T06:17:31;99737.16;;;6.48;92.43
34237;BME280;20501;45.956;13.632;2024-02-26T06:19:56;99737.66;;;6.32;92.98
34237;BME280;20501;45.956;13.632;2024-02-26T06:22:24;99736.28;;;6.48;92.21
34237;BME280;20501;45.956;13.632;2024-02-26T06:24:50;99732.34;;;6.42;92.91
34237;BME280;20501;45.956;13.632;2024-02-26T06:27:15;99748.38;;;6.32;93.26
34237;BME280;20501;45.956;13.632;2024-02-26T06:29:41;99745.78;;;6.52;92.26
34237;BME280;20501;45.956;13.632;2024-02-26T06:32:06;99760.50;;;6.58;92.15
34237;BME280;20501;45.956;13.632;2024-02-26T06:34:31;99756.19;;;6.76;91.11
34237;BME280;20501;45.956;13.632;2024-02-26T06:36:57;99758.97;;;6.96;90.13
34237;BME280;20501;45.956;13.632;2024-02-26T06:39:22;99750.59;;;6.89;90.32
34237;BME280;20501;45.956;13.632;2024-02-26T06:41:48;99748.59;;;6.81;91.14
34237;BME280;20501;45.956;13.632;2024-02-26T06:44:13;99749.38;;;7.03;90.33
34237;BME280;20501;45.956;13.632;2024-02-26T06:46:39;99762.22;;;7.09;89.65
34237;BME280;20501;45.956;13.632;2024-02-26T06:49:05;99757.16;;;7.06;90.64
34237;BME280;20501;45.956;13.632;2024-02-26T06:51:30;99764.97;;;6.78;91.77
34237;BME280;20501;45.956;13.632;2024-02-26T06:53:56;99767.78;;;6.77;92.17
34237;BME280;20501;45.956;13.632;2024-02-26T06:56:21;99774.38;;;7.04;91.41
34237;BME280;20501;45.956;13.632;2024-02-26T06:58:46;99774.50;;;7.02;91.46
34237;BME280;20501;45.956;13.632;2024-02-26T07:01:12;99778.50;;;7.08;91.71
34237;BME280;20501;45.956;13.632;2024-02-26T07:03:40;99775.84;;;7.27;90.64
34237;BME280;20501;45.956;13.632;2024-02-26T07:06:05;99774.13;;;7.26;90.71
34237;BME280;20501;45.956;13.632;2024-02-26T07:08:32;99782.31;;;7.05;91.37
34237;BME280;20501;45.956;13.632;2024-02-26T07:10:57;99774.94;;;6.97;92.41
34237;BME280;20501;45.956;13.632;2024-02-26T07:13:23;99788.50;;;7.06;91.63
34237;BME280;20501;45.956;13.632;2024-02-26T07:15:48;99784.28;;;7.13;91.66
34237;BME280;20501;45.956;13.632;2024-02-26T07:18:14;99787.69;;;7.15;91.74
34237;BME280;20501;45.956;13.632;2024-02-26T07:20:39;99781.88;;;7.10;91.16
34237;BME280;20501;45.956;13.632;2024-02-26T07:23:04;99788.78;;;7.03;91.41
34237;BME280;20501;45.956;13.632;2024-02-26T07:25:30;99791.91;;;7.08;92.05
34237;BME280;20501;45.956;13.632;2024-02-26T07:27:55;99782.44;;;7.04;91.90
34237;BME280;20501;45.956;13.632;2024-02-26T07:30:21;99777.63;;;7.07;91.95
34237;BME280;20501;45.956;13.632;2024-02-26T07:32:46;99774.81;;;7.09;92.24
34237;BME280;20501;45.956;13.632;2024-02-26T07:35:12;99774.66;;;7.10;92.04
34237;BME280;20501;45.956;13.632;2024-02-26T07:37:37;99782.34;;;7.35;91.65
34237;BME280;20501;45.956;13.632;2024-02-26T07:40:03;99780.81;;;7.42;91.07
34237;BME280;20501;45.956;13.632;2024-02-26T07:42:29;99781.38;;;7.36;90.57
34237;BME280;20501;45.956;13.632;2024-02-26T07:44:54;99771.59;;;7.35;90.77
34237;BME280;20501;45.956;13.632;2024-02-26T07:47:20;99779.81;;;7.33;91.25
34237;BME280;20501;45.956;13.632;2024-02-26T07:49:46;99779.41;;;7.48;90.85
34237;BME280;20501;45.956;13.632;2024-02-26T07:52:11;99772.47;;;7.45;90.73
34237;BME280;20501;45.956;13.632;2024-02-26T07:54:37;99778.69;;;7.46;91.05
34237;BME280;20501;45.956;13.632;2024-02-26T07:57:02;99777.56;;;7.48;91.01
34237;BME280;20501;45.956;13.632;2024-02-26T07:59:31;99784.22;;;7.54;90.72
34237;BME280;20501;45.956;13.632;2024-02-26T08:01:56;99777.28;;;7.51;90.93
34237;BME280;20501;45.956;13.632;2024-02-26T08:04:22;99776.59;;;7.69;90.44
34237;BME280;20501;45.956;13.632;2024-02-26T08:06:47;99783.81;;;7.98;89.35
34237;BME280;20501;45.956;13.632;2024-02-26T08:09:13;99787.19;;;8.10;88.89
34237;BME280;20501;45.956;13.632;2024-02-26T08:11:38;99795.00;;;7.93;89.90
34237;BME280;20501;45.956;13.632;2024-02-26T08:14:04;99800.50;;;7.92;89.55
34237;BME280;20501;45.956;13.632;2024-02-26T08:16:30;99803.63;;;7.87;89.84
34237;BME280;20501;45.956;13.632;2024-02-26T08:18:55;99799.38;;;7.94;89.80
34237;BME280;20501;45.956;13.632;2024-02-26T08:21:21;99796.53;;;7.86;90.33
34237;BME280;20501;45.956;13.632;2024-02-26T08:23:46;99796.41;;;7.97;90.27
34237;BME280;20501;45.956;13.632;2024-02-26T08:26:12;99797.41;;;8.06;89.89
34237;BME280;20501;45.956;13.632;2024-02-26T08:28:37;99795.09;;;8.31;89.81
34237;BME280;20501;45.956;13.632;2024-02-26T08:31:03;99798.31;;;8.44;88.98
34237;BME280;20501;45.956;13.632;2024-02-26T08:33:29;99795.16;;;8.69;87.21
34237;BME280;20501;45.956;13.632;2024-02-26T08:35:54;99796.97;;;8.78;87.02
34237;BME280;20501;45.956;13.632;2024-02-26T08:38:20;99792.06;;;8.63;86.88
34237;BME280;20501;45.956;13.632;2024-02-26T08:40:45;99790.44;;;8.80;86.68
34237;BME280;20501;45.956;13.632;2024-02-26T08:43:11;99786.41;;;8.94;86.59
34237;BME280;20501;45.956;13.632;2024-02-26T08:45:36;99781.06;;;9.12;86.06
34237;BME280;20501;45.956;13.632;2024-02-26T08:48:02;99779.16;;;9.23;85.19
34237;BME280;20501;45.956;13.632;2024-02-26T08:50:28;99770.41;;;9.39;85.04
34237;BME280;20501;45.956;13.632;2024-02-26T08:52:53;99781.66;;;9.34;85.50
34237;BME280;20501;45.956;13.632;2024-02-26T08:55:19;99784.66;;;9.49;85.18
34237;BME280;20501;45.956;13.632;2024-02-26T08:57:44;99773.66;;;9.42;85.12
34237;BME280;20501;45.956;13.632;2024-02-26T09:00:10;99789.13;;;9.40;85.67
34237;BME280;20501;45.956;13.632;2024-02-26T09:02:36;99783.94;;;9.29;85.59
34237;BME280;20501;45.956;13.632;2024-02-26T09:05:05;99781.19;;;9.39;85.23
34237;BME280;20501;45.956;13.632;2024-02-26T09:07:31;99781.56;;;9.26;85.24
34237;BME280;20501;45.956;13.632;2024-02-26T09:09:56;99778.53;;;9.29;84.84
34237;BME280;20501;45.956;13.632;2024-02-26T09:12:22;99778.91;;;9.44;85.34
34237;BME280;20501;45.956;13.632;2024-02-26T09:14:47;99784.19;;;9.36;84.93
34237;BME280;20501;45.956;13.632;2024-02-26T09:17:12;99783.63;;;9.32;86.11
34237;BME280;20501;45.956;13.632;2024-02-26T09:19:38;99779.44;;;9.48;85.55
34237;BME280;20501;45.956;13.632;2024-02-26T09:22:04;99783.34;;;9.35;85.39
34237;BME280;20501;45.956;13.632;2024-02-26T09:24:29;99782.06;;;9.39;84.88
34237;BME280;20501;45.956;13.632;2024-02-26T09:26:55;99785.97;;;9.45;85.20
34237;BME280;20501;45.956;13.632;2024-02-26T09:29:21;99795.31;;;9.69;83.61
34237;BME280;20501;45.956;13.632;2024-02-26T09:31:46;99798.00;;;9.69;83.57
34237;BME280;20501;45.956;13.632;2024-02-26T09:34:14;99795.41;;;9.77;83.95
34237;BME280;20501;45.956;13.632;2024-02-26T09:36:40;99797.09;;;9.60;84.35
34237;BME280;20501;45.956;13.632;2024-02-26T09:39:05;99797.16;;;9.68;84.23
34237;BME280;20501;45.956;13.632;2024-02-26T09:41:32;99803.16;;;9.62;84.23
34237;BME280;20501;45.956;13.632;2024-02-26T09:43:58;99793.06;;;9.46;84.03
34237;BME280;20501;45.956;13.632;2024-02-26T09:58:31;99799.09;;;9.58;83.75
34237;BME280;20501;45.956;13.632;2024-02-26T10:00:57;99796.16;;;9.69;84.10
34237;BME280;20501;45.956;13.632;2024-02-26T10:03:31;99803.03;;;9.82;83.68
34237;BME280;20501;45.956;13.632;2024-02-26T10:05:59;99801.78;;;9.94;82.97
34237;BME280;20501;45.956;13.632;2024-02-26T10:08:28;99799.69;;;10.06;82.75
34237;BME280;20501;45.956;13.632;2024-02-26T10:10:54;99799.28;;;10.19;81.43
34237;BME280;20501;45.956;13.632;2024-02-26T10:13:20;99803.75;;;10.28;80.90
34237;BME280;20501;45.956;13.632;2024-02-26T10:15:45;99798.34;;;10.46;80.27
34237;BME280;20501;45.956;13.632;2024-02-26T10:18:11;99803.03;;;10.71;79.36
34237;BME280;20501;45.956;13.632;2024-02-26T10:20:36;99802.63;;;10.83;79.05
34237;BME280;20501;45.956;13.632;2024-02-26T10:23:03;99800.50;;;11.04;77.32
34237;BME280;20501;45.956;13.632;2024-02-26T10:25:29;99797.53;;;11.23;77.13
34237;BME280;20501;45.956;13.632;2024-02-26T10:27:59;99797.28;;;11.51;75.98
34237;BME280;20501;45.956;13.632;2024-02-26T10:30:27;99801.00;;;11.50;75.56
34237;BME280;20501;45.956;13.632;2024-02-26T10:32:52;99803.53;;;11.52;74.45
34237;BME280;20501;45.956;13.632;2024-02-26T10:35:18;99801.19;;;11.57;74.48
34237;BME280;20501;45.956;13.632;2024-02-26T10:37:48;99792.25;;;11.65;74.46
34237;BME280;20501;45.956;13.632;2024-02-26T10:40:14;99796.66;;;11.66;73.18
34237;BME280;20501;45.956;13.632;2024-02-26T10:42:41;99800.00;;;11.59;74.53
34237;BME280;20501;45.956;13.632;2024-02-26T10:45:08;99791.50;;;11.46;74.30
34237;BME280;20501;45.956;13.632;2024-02-26T10:47:37;99800.69;;;11.53;73.85
34237;BME280;20501;45.956;13.632;2024-02-26T10:50:04;99798.97;;;11.52;72.48
34237;BME280;20501;45.956;13.632;2024-02-26T10:52:35;99790.50;;;11.47;69.56
34237;BME280;20501;45.956;13.632;2024-02-26T10:55:05;99789.50;;;11.48;69.23
34237;BME280;20501;45.956;13.632;2024-02-26T10:57:35;99791.56;;;11.63;68.71
34237;BME280;20501;45.956;13.632;2024-02-26T11:00:04;99780.75;;;11.71;69.41
34237;BME280;20501;45.956;13.632;2024-02-26T11:02:32;99783.13;;;11.74;68.91
34237;BME280;20501;45.956;13.632;2024-02-26T11:05:01;99780.25;;;11.67;69.92
34237;BME280;20501;45.956;13.632;2024-02-26T11:07:27;99775.00;;;11.66;71.70
34237;BME280;20501;45.956;13.632;2024-02-26T11:09:54;99773.66;;;11.86;72.19
34237;BME280;20501;45.956;13.632;2024-02-26T11:12:21;99777.91;;;12.05;70.36
34237;BME280;20501;45.956;13.632;2024-02-26T11:14:48;99776.03;;;12.22;69.11
34237;BME280;20501;45.956;13.632;2024-02-26T11:17:17;99766.09;;;12.15;68.41
34237;BME280;20501;45.956;13.632;2024-02-26T11:19:44;99766.56;;;12.10;67.04
34237;BME280;20501;45.956;13.632;2024-02-26T11:22:11;99766.38;;;12.45;67.23
34237;BME280;20501;45.956;13.632;2024-02-26T11:24:36;99763.63;;;12.61;65.20
34237;BME280;20501;45.956;13.632;2024-02-26T11:27:07;99765.09;;;12.80;64.08
34237;BME280;20501;45.956;13.632;2024-02-26T11:29:41;99762.44;;;12.72;63.10
34237;BME280;20501;45.956;13.632;2024-02-26T11:32:09;99756.94;;;12.89;63.16
34237;BME280;20501;45.956;13.632;2024-02-26T11:34:35;99759.41;;;13.07;62.98
34237;BME280;20501;45.956;13.632;2024-02-26T11:37:14;99749.91;;;13.03;63.88
34237;BME280;20501;45.956;13.632;2024-02-26T11:39:41;99752.47;;;12.96;62.55
34237;BME280;20501;45.956;13.632;2024-02-26T11:42:10;99751.84;;;12.94;62.52
34237;BME280;20501;45.956;13.632;2024-02-26T11:44:38;99741.53;;;12.89;62.33
34237;BME280;20501;45.956;13.632;2024-02-26T11:47:22;99742.50;;;12.96;63.33
34237;BME280;20501;45.956;13.632;2024-02-26T11:49:48;99740.50;;;13.22;63.44
34237;BME280;20501;45.956;13.632;2024-02-26T11:52:14;99746.56;;;13.32;64.82
34237;BME280;20501;45.956;13.632;2024-02-26T11:54:48;99741.94;;;13.09;63.13
34237;BME280;20501;45.956;13.632;2024-02-26T11:57:49;99740.38;;;13.15;62.26
34237;BME280;20501;45.956;13.632;2024-02-26T12:00:16;99735.81;;;13.07;62.92
34237;BME280;20501;45.956;13.632;2024-02-26T12:02:52;99733.94;;;13.16;62.81
34237;BME280;20501;45.956;13.632;2024-02-26T12:05:32;99735.56;;;13.25;62.76
34237;BME280;20501;45.956;13.632;2024-02-26T12:10:31;99730.78;;;12.96;62.79
34237;BME280;20501;45.956;13.632;2024-02-26T12:13:05;99724.97;;;13.15;63.54
34237;BME280;20501;45.956;13.632;2024-02-26T12:15:56;99724.34;;;13.05;62.00
34237;BME280;20501;45.956;13.632;2024-02-26T12:18:22;99724.34;;;13.05;61.90
34237;BME280;20501;45.956;13.632;2024-02-26T12:21:04;99716.84;;;13.07;63.13
34237;BME280;20501;45.956;13.632;2024-02-26T12:23:29;99714.41;;;13.21;62.94
34237;BME280;20501;45.956;13.632;2024-02-26T12:26:02;99720.38;;;13.16;61.78
34237;BME280;20501;45.956;13.632;2024-02-26T12:28:30;99719.22;;;13.10;61.04
34237;BME280;20501;45.956;13.632;2024-02-26T12:30:56;99721.94;;;13.10;60.68
34237;BME280;20501;45.956;13.632;2024-02-26T12:33:25;99723.59;;;12.80;60.24
34237;BME280;20501;45.956;13.632;2024-02-26T12:35:51;99727.03;;;12.65;61.00
34237;BME280;20501;45.956;13.632;2024-02-26T12:38:17;99717.00;;;12.82;60.34
34237;BME280;20501;45.956;13.632;2024-02-26T12:40:42;99721.38;;;12.83;60.60
34237;BME280;20501;45.956;13.632;2024-02-26T12:43:08;99721.47;;;12.59;60.10
34237;BME280;20501;45.956;13.632;2024-02-26T12:45:40;99716.09;;;12.50;60.61
34237;BME280;20501;45.956;13.632;2024-02-26T12:48:06;99725.16;;;12.66;61.27
34237;BME280;20501;45.956;13.632;2024-02-26T12:50:32;99720.53;;;12.83;61.54
34237;BME280;20501;45.956;13.632;2024-02-26T12:52:58;99717.00;;;12.82;61.97
34237;BME280;20501;45.956;13.632;2024-02-26T12:55:24;99718.69;;;12.75;61.77
34237;BME280;20501;45.956;13.632;2024-02-26T12:57:51;99719.56;;;12.76;62.41
34237;BME280;20501;45.956;13.632;2024-02-26T13:00:21;99725.81;;;12.76;62.39
34237;BME280;20501;45.956;13.632;2024-02-26T13:02:48;99727.00;;;12.74;62.88
34237;BME280;20501;45.956;13.632;2024-02-26T13:05:15;99720.91;;;12.72;62.08
34237;BME280;20501;45.956;13.632;2024-02-26T13:07:42;99726.03;;;12.66;62.90